createdAt,value
2023-04-22T00:01:07.047Z,95868.50
2023-04-22T00:03:34.201Z,95888.63
2023-04-22T00:06:01.559Z,95876.53
2023-04-22T00:08:28.532Z,95856.19
2023-04-22T00:10:56.840Z,95873.16
2023-04-22T00:13:23.712Z,95855.75
2023-04-22T00:15:51.366Z,95868.16
2023-04-22T00:18:18.423Z,95841.81
2023-04-22T00:20:45.687Z,95875.34
2023-04-22T00:23:13.159Z,95892.44
2023-04-22T00:25:40.925Z,95880.88
2023-04-22T00:28:07.975Z,95891.03
2023-04-22T00:30:35.856Z,95883.44
2023-04-22T00:33:02.904Z,95867.16
2023-04-22T00:35:30.132Z,95877.84
2023-04-22T00:37:57.002Z,95809.66
2023-04-22T00:40:23.932Z,95878.63
2023-04-22T00:42:51.439Z,95857.31
2023-04-22T00:45:19.704Z,95886.78
2023-04-22T00:47:47.588Z,95900.69
2023-04-22T00:50:15.675Z,95891.53
2023-04-22T00:52:42.547Z,95828.94
2023-04-22T00:55:10.170Z,95868.28
2023-04-22T00:57:37.550Z,95899.44
2023-04-22T01:00:05.918Z,95896.09
2023-04-22T01:02:33.415Z,95878.81
2023-04-22T01:05:01.383Z,95878.84
2023-04-22T01:07:28.839Z,95898.44
2023-04-22T01:09:55.784Z,95888.44
2023-04-22T01:12:22.664Z,95893.97
2023-04-22T01:14:49.778Z,95894.88
2023-04-22T01:17:17.481Z,95893.66
2023-04-22T01:19:44.564Z,95898.31
2023-04-22T01:22:13.814Z,95882.25
2023-04-22T01:24:41.016Z,95890.13
2023-04-22T01:27:08.772Z,95886.13
2023-04-22T01:29:38.736Z,95900.47
2023-04-22T01:32:06.415Z,95898.00
2023-04-22T01:34:33.970Z,95901.09
2023-04-22T01:37:01.178Z,95896.16
2023-04-22T01:39:28.205Z,95890.13
2023-04-22T01:41:56.823Z,95883.63
2023-04-22T01:44:24.418Z,95881.31
2023-04-22T01:46:51.443Z,95913.44
2023-04-22T01:49:18.431Z,95885.34
2023-04-22T01:51:45.267Z,95880.56
2023-04-22T01:54:12.968Z,95866.19
2023-04-22T01:56:40.914Z,95914.53
2023-04-22T01:59:08.171Z,95884.44
2023-04-22T02:01:37.097Z,95896.13
2023-04-22T02:04:06.618Z,95885.34
2023-04-22T02:06:33.635Z,95906.81
2023-04-22T02:09:00.590Z,95849.63
2023-04-22T02:11:27.563Z,95881.31
2023-04-22T02:13:54.580Z,95854.69
2023-04-22T02:16:21.500Z,95877.41
2023-04-22T02:18:49.071Z,95854.41
2023-04-22T02:21:16.136Z,95889.31
2023-04-22T02:23:43.304Z,95870.13
2023-04-22T02:26:10.426Z,95894.34
2023-04-22T02:28:37.335Z,95867.28
2023-04-22T02:31:04.351Z,95816.78
2023-04-22T02:33:31.324Z,95863.13
2023-04-22T02:35:58.275Z,95845.72
2023-04-22T02:38:25.323Z,95862.72
2023-04-22T02:40:52.275Z,95861.03
2023-04-22T02:43:19.361Z,95876.84
2023-04-22T02:45:46.249Z,95893.06
2023-04-22T02:48:13.231Z,95866.78
2023-04-22T02:50:40.280Z,95868.81
2023-04-22T02:53:08.857Z,95817.03
2023-04-22T02:55:35.894Z,95863.53
2023-04-22T02:58:02.783Z,95823.66
2023-04-22T03:00:29.750Z,95836.19
2023-04-22T03:02:57.093Z,95877.31
2023-04-22T03:05:30.461Z,95876.28
2023-04-22T03:07:57.685Z,95853.94
2023-04-22T03:10:24.548Z,95884.88
2023-04-22T03:12:51.495Z,95849.59
2023-04-22T03:15:21.671Z,95829.31
2023-04-22T03:17:49.194Z,95847.19
2023-04-22T03:20:16.986Z,95843.72
2023-04-22T03:22:43.898Z,95850.19
2023-04-22T03:25:12.838Z,95878.91
2023-04-22T03:27:41.109Z,95880.00
2023-04-22T03:30:08.399Z,95886.31
2023-04-22T03:32:35.805Z,95885.84
2023-04-22T03:35:18.018Z,95875.50
2023-04-22T03:37:47.628Z,95890.25
2023-04-22T03:40:18.732Z,95858.63
2023-04-22T03:42:45.759Z,95862.81
2023-04-22T03:45:13.223Z,95871.28
2023-04-22T03:47:45.318Z,95859.56
2023-04-22T03:50:21.194Z,95834.19
2023-04-22T03:52:50.291Z,95853.81
2023-04-22T03:55:20.028Z,95866.19
2023-04-22T03:57:48.674Z,95870.44
2023-04-22T04:00:15.719Z,95861.53
2023-04-22T04:02:48.901Z,95884.44
2023-04-22T04:05:18.632Z,95896.47
2023-04-22T04:07:45.908Z,95869.50
2023-04-22T04:10:13.530Z,95885.84
2023-04-22T04:12:40.531Z,95854.03
2023-04-22T04:15:08.090Z,95860.22
2023-04-22T04:17:36.551Z,95875.34
2023-04-22T04:20:05.179Z,95884.47
2023-04-22T04:22:32.332Z,95879.78
2023-04-22T04:25:01.913Z,95879.47
2023-04-22T04:27:35.263Z,95887.72
2023-04-22T04:30:04.509Z,95889.72
2023-04-22T04:32:40.015Z,95889.31
2023-04-22T04:35:09.980Z,95868.44
2023-04-22T04:37:40.608Z,95870.06
2023-04-22T04:40:12.477Z,95878.41
2023-04-22T04:42:47.838Z,95866.75
2023-04-22T04:45:21.080Z,95877.66
2023-04-22T04:47:50.948Z,95875.28
2023-04-22T04:50:23.354Z,95881.28
2023-04-22T04:52:52.820Z,95843.03
2023-04-22T04:55:24.893Z,95886.63
2023-04-22T04:57:52.082Z,95860.50
2023-04-22T05:00:19.464Z,95850.88
2023-04-22T05:02:46.850Z,95863.34
2023-04-22T05:05:13.903Z,95889.28
2023-04-22T05:07:42.852Z,95868.34
2023-04-22T05:10:11.513Z,95906.53
2023-04-22T05:12:39.007Z,95871.66
2023-04-22T05:15:08.541Z,95894.56
2023-04-22T05:17:37.197Z,95839.38
2023-04-22T05:20:04.719Z,95868.72
2023-04-22T05:22:31.740Z,95923.97
2023-04-22T05:24:58.657Z,95891.91
2023-04-22T05:27:25.657Z,95894.16
2023-04-22T05:29:52.858Z,95866.19
2023-04-22T05:32:24.254Z,95897.75
2023-04-22T05:34:51.486Z,95906.38
2023-04-22T05:37:18.572Z,95905.84
2023-04-22T05:39:45.694Z,95883.16
2023-04-22T05:42:12.562Z,95837.44
2023-04-22T05:44:40.133Z,95867.59
2023-04-22T05:47:07.220Z,95881.19
2023-04-22T05:49:34.115Z,95907.88
2023-04-22T05:52:28.063Z,95879.63
2023-04-22T05:55:15.793Z,95899.06
2023-04-22T05:57:44.137Z,95887.63
2023-04-22T06:00:34.390Z,95912.84
2023-04-22T06:03:14.841Z,95899.50
2023-04-22T06:05:43.356Z,95888.69
2023-04-22T06:08:10.752Z,95908.97
2023-04-22T06:10:37.615Z,95911.25
2023-04-22T06:13:04.464Z,95918.81
2023-04-22T06:15:31.408Z,95913.81
2023-04-22T06:17:58.992Z,95931.28
2023-04-22T06:20:26.418Z,95928.25
2023-04-22T06:22:54.392Z,95914.06
2023-04-22T06:25:21.248Z,95926.41
2023-04-22T06:27:48.739Z,95922.47
2023-04-22T06:30:15.809Z,95933.34
2023-04-22T06:32:42.658Z,95911.94
2023-04-22T06:35:09.721Z,95925.78
2023-04-22T06:37:37.109Z,95937.53
2023-04-22T06:40:07.729Z,95926.38
2023-04-22T06:42:56.657Z,95944.78
2023-04-22T06:45:43.879Z,95946.66
2023-04-22T06:48:24.889Z,95945.47
2023-04-22T06:51:10.831Z,95900.53
2023-04-22T06:53:37.702Z,95949.75
2023-04-22T06:56:05.914Z,95949.06
2023-04-22T06:58:32.804Z,95927.97
2023-04-22T07:00:59.838Z,95968.06
2023-04-22T07:03:27.713Z,95948.13
2023-04-22T07:06:01.959Z,95953.97
2023-04-22T07:08:30.436Z,95950.97
2023-04-22T07:10:58.112Z,95950.94
2023-04-22T07:13:40.933Z,95934.53
2023-04-22T07:16:07.998Z,95958.38
2023-04-22T07:18:36.093Z,95958.25
2023-04-22T07:21:03.100Z,95932.63
2023-04-22T07:23:29.974Z,95924.34
2023-04-22T07:25:56.807Z,95931.03
2023-04-22T07:28:23.627Z,95936.44
2023-04-22T07:30:50.517Z,95924.19
2023-04-22T07:33:17.372Z,95923.47
2023-04-22T07:35:44.246Z,95945.22
2023-04-22T07:38:12.674Z,95932.44
2023-04-22T07:40:41.100Z,95904.28
2023-04-22T07:43:08.162Z,95918.22
2023-04-22T07:45:35.124Z,95950.06
2023-04-22T07:48:02.197Z,95951.41
2023-04-22T07:50:29.107Z,95909.56
2023-04-22T07:52:56.177Z,95930.53
2023-04-22T07:55:23.053Z,95944.69
2023-04-22T07:57:49.930Z,95923.28
2023-04-22T08:00:17.378Z,95906.84
2023-04-22T08:02:44.520Z,95930.91
2023-04-22T08:05:11.906Z,95914.22
2023-04-22T08:07:38.920Z,95893.66
2023-04-22T08:10:06.897Z,95908.34
2023-04-22T08:12:33.744Z,95909.63
2023-04-22T08:15:00.668Z,95907.50
2023-04-22T08:17:27.678Z,95907.31
2023-04-22T08:19:54.611Z,95909.34
2023-04-22T08:22:21.531Z,95907.25
2023-04-22T08:24:48.373Z,95905.09
2023-04-22T08:27:15.317Z,95904.69
2023-04-22T08:29:42.727Z,95907.47
2023-04-22T08:32:10.042Z,95893.34
2023-04-22T08:34:37.250Z,95911.00
2023-04-22T08:37:04.411Z,95934.53
2023-04-22T08:39:31.279Z,95916.06
2023-04-22T08:41:58.576Z,95938.06
2023-04-22T08:44:26.016Z,95936.16
2023-04-22T08:46:55.420Z,95926.34
2023-04-22T08:49:24.193Z,95939.34
2023-04-22T08:51:51.416Z,95901.47
2023-04-22T08:54:18.432Z,95923.94
2023-04-22T08:56:46.063Z,95941.25
2023-04-22T08:59:13.703Z,95938.69
2023-04-22T09:01:42.193Z,95939.41
2023-04-22T09:04:15.434Z,95923.56
2023-04-22T09:06:42.335Z,95926.53
2023-04-22T09:09:09.161Z,95904.75
2023-04-22T09:11:36.563Z,95912.19
2023-04-22T09:14:04.688Z,95936.38
2023-04-22T09:16:32.354Z,95936.91
2023-04-22T09:18:59.465Z,95935.28
2023-04-22T09:21:28.306Z,95923.44
2023-04-22T09:23:56.826Z,95913.13
2023-04-22T09:26:26.357Z,95936.16
2023-04-22T09:29:01.051Z,95920.34
2023-04-22T09:31:28.868Z,95909.28
2023-04-22T09:33:58.156Z,95919.25
2023-04-22T09:36:29.579Z,95931.91
2023-04-22T09:38:59.797Z,95915.06
2023-04-22T09:41:29.792Z,95847.19
2023-04-22T09:43:58.425Z,95905.63
2023-04-22T09:46:26.964Z,95891.13
2023-04-22T09:48:56.366Z,95922.91
2023-04-22T09:51:23.487Z,95889.66
2023-04-22T09:54:09.016Z,95918.47
2023-04-22T09:56:53.029Z,95856.56
2023-04-22T09:59:22.887Z,95917.66
2023-04-22T10:01:52.325Z,95895.94
2023-04-22T10:04:21.729Z,95898.66
2023-04-22T10:06:49.434Z,95912.00
2023-04-22T10:09:20.179Z,95874.97
2023-04-22T10:11:48.828Z,95902.13
2023-04-22T10:14:16.308Z,95902.13
2023-04-22T10:16:45.526Z,95893.69
2023-04-22T10:19:16.830Z,95861.25
2023-04-22T10:21:46.073Z,95895.66
2023-04-22T10:24:18.314Z,95886.47
2023-04-22T10:26:50.198Z,95896.81
2023-04-22T10:29:20.865Z,95889.53
2023-04-22T10:31:58.410Z,95899.88
2023-04-22T10:34:25.451Z,95903.34
2023-04-22T10:36:56.440Z,95903.72
2023-04-22T10:39:24.456Z,95897.63
2023-04-22T10:42:06.640Z,95896.78
2023-04-22T10:44:46.862Z,95859.03
2023-04-22T10:47:34.896Z,95892.59
2023-04-22T10:50:16.366Z,95890.31
2023-04-22T10:52:46.150Z,95883.31
2023-04-22T10:55:13.192Z,95879.56
2023-04-22T10:57:42.740Z,95879.88
2023-04-22T11:03:11.019Z,95857.00
2023-04-22T11:05:39.144Z,95882.13
2023-04-22T11:08:12.983Z,95873.34
2023-04-22T11:10:48.453Z,95849.59
2023-04-22T11:13:25.651Z,95877.50
2023-04-22T11:15:55.690Z,95863.94
2023-04-22T11:18:26.719Z,95873.34
2023-04-22T11:20:54.481Z,95855.41
2023-04-22T11:23:25.010Z,95878.69
2023-04-22T11:26:00.565Z,95865.50
2023-04-22T11:28:27.976Z,95868.19
2023-04-22T11:31:10.576Z,95865.38
2023-04-22T11:33:39.384Z,95866.31
2023-04-22T11:36:11.870Z,95864.66
2023-04-22T11:38:38.892Z,95839.63
2023-04-22T11:41:05.970Z,95827.22
2023-04-22T11:43:33.035Z,95815.94
2023-04-22T11:46:00.321Z,95831.00
2023-04-22T11:48:27.233Z,95841.69
2023-04-22T11:51:11.937Z,95839.63
2023-04-22T11:53:40.315Z,95840.59
2023-04-22T11:56:07.413Z,95856.88
2023-04-22T11:58:39.084Z,95833.72
2023-04-22T12:01:06.050Z,95831.09
2023-04-22T12:03:34.843Z,95833.72
2023-04-22T12:06:04.741Z,95857.47
2023-04-22T12:08:36.977Z,95843.53
2023-04-22T12:11:08.385Z,95853.03
2023-04-22T12:13:46.576Z,95839.84
2023-04-22T12:16:15.912Z,95837.38
2023-04-22T12:18:52.638Z,95841.91
2023-04-22T12:21:22.423Z,95804.00
2023-04-22T12:23:52.390Z,95830.47
2023-04-22T12:26:23.669Z,95826.50
2023-04-22T12:28:52.963Z,95825.88
2023-04-22T12:31:22.984Z,95824.81
2023-04-22T12:33:50.523Z,95820.78
2023-04-22T12:36:21.069Z,95819.25
2023-04-22T12:38:48.097Z,95819.63
2023-04-22T12:41:16.142Z,95826.13
2023-04-22T12:43:42.984Z,95804.53
2023-04-22T12:46:10.355Z,95813.94
2023-04-22T12:48:39.510Z,95799.34
2023-04-22T12:51:07.236Z,95818.00
2023-04-22T12:53:34.297Z,95823.94
2023-04-22T12:56:01.360Z,95802.75
2023-04-22T12:58:28.324Z,95802.47
2023-04-22T13:00:55.166Z,95817.06
2023-04-22T13:03:22.320Z,95808.03
2023-04-22T13:05:49.414Z,95808.25
2023-04-22T13:08:16.364Z,95789.09
2023-04-22T13:10:43.177Z,95779.53
2023-04-22T13:13:18.247Z,95772.78
2023-04-22T13:15:47.940Z,95776.78
2023-04-22T13:18:17.053Z,95786.16
2023-04-22T13:20:44.122Z,95775.09
2023-04-22T13:23:11.589Z,95762.06
2023-04-22T13:25:38.433Z,95753.22
2023-04-22T13:28:05.314Z,95769.28
2023-04-22T13:30:32.158Z,95766.91
2023-04-22T13:32:59.016Z,95764.44
2023-04-22T13:35:26.163Z,95758.13
2023-04-22T13:37:53.081Z,95729.47
2023-04-22T13:40:19.972Z,95754.78
2023-04-22T13:42:46.890Z,95730.97
2023-04-22T13:45:13.744Z,95749.16
2023-04-22T13:47:40.812Z,95735.53
2023-04-22T13:50:09.288Z,95723.75
2023-04-22T13:52:36.231Z,95733.47
2023-04-22T13:55:04.249Z,95746.28
2023-04-22T13:57:31.165Z,95714.03
2023-04-22T13:59:58.171Z,95731.84
2023-04-22T14:02:25.208Z,95710.84
2023-04-22T14:04:52.378Z,95693.09
2023-04-22T14:07:19.349Z,95719.50
2023-04-22T14:09:46.213Z,95695.41
2023-04-22T14:12:13.666Z,95714.19
2023-04-22T14:14:40.548Z,95728.31
2023-04-22T14:17:07.614Z,95706.56
2023-04-22T14:19:37.709Z,95685.97
2023-04-22T14:22:04.678Z,95714.81
2023-04-22T14:24:31.615Z,95710.66
2023-04-22T14:27:04.596Z,95715.94
2023-04-22T14:29:32.101Z,95711.97
2023-04-22T14:31:59.720Z,95706.50
2023-04-22T14:34:27.445Z,95711.31
2023-04-22T14:36:54.605Z,95686.63
2023-04-22T14:39:21.713Z,95713.22
2023-04-22T14:41:49.126Z,95691.03
2023-04-22T14:44:16.259Z,95702.97
2023-04-22T14:46:43.167Z,95704.19
2023-04-22T14:49:10.174Z,95706.78
2023-04-22T14:51:37.124Z,95690.06
2023-04-22T14:54:04.088Z,95705.88
2023-04-22T14:56:30.900Z,95703.75
2023-04-22T14:58:57.744Z,95705.00
2023-04-22T15:01:24.655Z,95683.28
2023-04-22T15:03:52.432Z,95697.31
2023-04-22T15:06:19.362Z,95687.91
2023-04-22T15:08:46.329Z,95708.25
2023-04-22T15:11:13.147Z,95704.69
2023-04-22T15:13:39.964Z,95702.94
2023-04-22T15:16:07.092Z,95666.88
2023-04-22T15:18:34.064Z,95692.00
2023-04-22T15:21:01.119Z,95709.00
2023-04-22T15:23:27.956Z,95689.66
2023-04-22T15:25:55.032Z,95661.22
2023-04-22T15:28:21.940Z,95703.31
2023-04-22T15:30:50.380Z,95677.41
2023-04-22T15:33:17.243Z,95682.97
2023-04-22T15:35:45.791Z,95667.22
2023-04-22T15:38:12.681Z,95696.25
2023-04-22T15:40:39.565Z,95658.16
2023-04-22T15:43:06.513Z,95696.03
2023-04-22T15:45:34.569Z,95697.31
2023-04-22T15:48:01.786Z,95691.22
2023-04-22T15:50:28.985Z,95699.22
2023-04-22T15:52:55.805Z,95696.38
2023-04-22T15:55:23.007Z,95684.03
2023-04-22T15:57:49.842Z,95681.53
2023-04-22T16:00:17.018Z,95663.00
2023-04-22T16:02:44.686Z,95694.88
2023-04-22T16:05:12.252Z,95669.63
2023-04-22T16:07:39.449Z,95668.13
2023-04-22T16:10:07.557Z,95676.25
2023-04-22T16:12:34.664Z,95688.59
2023-04-22T16:15:02.122Z,95660.25
2023-04-22T16:17:29.909Z,95675.84
2023-04-22T16:19:57.014Z,95672.34
2023-04-22T16:22:23.943Z,95673.66
2023-04-22T16:24:51.367Z,95666.03
2023-04-22T16:27:19.463Z,95661.19
2023-04-22T16:29:46.670Z,95680.13
2023-04-22T16:32:13.624Z,95672.06
2023-04-22T16:34:40.558Z,95658.06
2023-04-22T16:37:10.290Z,95635.22
2023-04-22T16:39:37.168Z,95668.25
2023-04-22T16:42:04.155Z,95654.59
2023-04-22T16:44:31.105Z,95629.22
2023-04-22T16:46:58.004Z,95655.56
2023-04-22T16:49:24.954Z,95648.41
2023-04-22T16:51:51.875Z,95630.66
2023-04-22T16:54:18.775Z,95619.31
2023-04-22T16:56:45.673Z,95643.63
2023-04-22T16:59:12.543Z,95630.81
2023-04-22T17:01:42.130Z,95639.41
2023-04-22T17:04:09.206Z,95647.94
2023-04-22T17:06:37.705Z,95628.19
2023-04-22T17:09:06.609Z,95628.22
2023-04-22T17:11:33.473Z,95607.28
2023-04-22T17:14:00.484Z,95635.25
2023-04-22T17:16:27.337Z,95637.06
2023-04-22T17:18:54.219Z,95619.28
2023-04-22T17:21:23.264Z,95640.97
2023-04-22T17:23:50.554Z,95621.72
2023-04-22T17:26:17.422Z,95613.28
2023-04-22T17:28:44.379Z,95645.72
2023-04-22T17:31:11.372Z,95628.66
2023-04-22T17:33:38.355Z,95628.34
2023-04-22T17:36:05.852Z,95626.75
2023-04-22T17:38:33.216Z,95647.09
2023-04-22T17:41:00.202Z,95625.41
2023-04-22T17:43:27.146Z,95602.06
2023-04-22T17:45:54.135Z,95606.44
2023-04-22T17:48:21.088Z,95610.34
2023-04-22T17:50:48.046Z,95628.28
2023-04-22T17:53:14.975Z,95627.94
2023-04-22T17:55:41.916Z,95622.19
2023-04-22T17:58:09.035Z,95628.75
2023-04-22T18:00:37.659Z,95622.34
2023-04-22T18:03:05.241Z,95636.53
2023-04-22T18:05:32.288Z,95606.47
2023-04-22T18:08:02.776Z,95629.34
2023-04-22T18:10:30.732Z,95609.63
2023-04-22T18:12:57.778Z,95626.44
2023-04-22T18:15:24.814Z,95613.56
2023-04-22T18:17:51.895Z,95637.97
2023-04-22T18:20:20.037Z,95625.41
2023-04-22T18:22:48.919Z,95621.59
2023-04-22T18:25:16.711Z,95605.22
2023-04-22T18:27:44.402Z,95635.00
2023-04-22T18:30:11.722Z,95614.41
2023-04-22T18:32:38.944Z,95631.59
2023-04-22T18:35:06.542Z,95605.66
2023-04-22T18:37:34.960Z,95599.91
2023-04-22T18:40:02.604Z,95621.28
2023-04-22T18:42:30.054Z,95625.09
2023-04-22T18:44:57.002Z,95612.13
2023-04-22T18:47:24.007Z,95609.44
2023-04-22T18:49:51.062Z,95629.28
2023-04-22T18:52:18.310Z,95625.06
2023-04-22T18:54:45.273Z,95623.53
2023-04-22T18:57:12.314Z,95625.44
2023-04-22T18:59:39.981Z,95641.41
2023-04-22T19:02:06.956Z,95615.81
2023-04-22T19:04:34.011Z,95623.75
2023-04-22T19:07:01.200Z,95603.84
2023-04-22T19:09:28.195Z,95629.81
2023-04-22T19:11:55.715Z,95618.72
2023-04-22T19:14:22.685Z,95608.72
2023-04-22T19:16:49.646Z,95631.28
2023-04-22T19:19:16.689Z,95646.28
2023-04-22T19:21:43.846Z,95660.78
2023-04-22T19:24:11.053Z,95658.84
2023-04-22T19:26:37.984Z,95638.28
2023-04-22T19:29:04.938Z,95632.91
2023-04-22T19:31:32.179Z,95644.75
2023-04-22T19:33:59.572Z,95626.34
2023-04-22T19:36:27.229Z,95631.28
2023-04-22T19:38:54.177Z,95634.72
2023-04-22T19:41:21.937Z,95669.13
2023-04-22T19:43:49.096Z,95657.56
2023-04-22T19:46:16.155Z,95661.53
2023-04-22T19:48:43.348Z,95664.47
2023-04-22T19:51:11.346Z,95658.69
2023-04-22T19:53:39.525Z,95638.13
2023-04-22T19:56:06.584Z,95633.84
2023-04-22T19:58:33.539Z,95655.75
2023-04-22T20:01:00.634Z,95638.44
2023-04-22T20:03:28.217Z,95642.31
2023-04-22T20:05:55.805Z,95598.81
2023-04-22T20:08:27.171Z,95657.31
2023-04-22T20:10:55.481Z,95651.28
2023-04-22T20:13:22.830Z,95630.19
2023-04-22T20:15:50.416Z,95648.63
2023-04-22T20:18:17.470Z,95631.38
2023-04-22T20:20:48.267Z,95631.72
2023-04-22T20:23:15.858Z,95651.88
2023-04-22T20:25:47.203Z,95651.69
2023-04-22T20:28:14.440Z,95646.00
2023-04-22T20:30:41.708Z,95616.06
2023-04-22T20:33:12.428Z,95637.78
2023-04-22T20:35:40.902Z,95622.13
2023-04-22T20:38:09.501Z,95648.81
2023-04-22T20:40:36.898Z,95618.97
2023-04-22T20:43:03.833Z,95589.03
2023-04-22T20:45:31.448Z,95621.19
2023-04-22T20:47:58.584Z,95660.13
2023-04-22T20:50:26.790Z,95631.38
2023-04-22T20:52:54.593Z,95638.28
2023-04-22T20:55:24.949Z,95655.13
2023-04-22T20:57:51.972Z,95622.38
2023-04-22T21:00:19.756Z,95623.47
2023-04-22T21:02:47.379Z,95640.75
2023-04-22T21:05:15.492Z,95634.09
2023-04-22T21:07:44.359Z,95644.00
2023-04-22T21:10:11.755Z,95646.63
2023-04-22T21:12:41.650Z,95631.75
2023-04-22T21:15:11.975Z,95631.19
2023-04-22T21:17:44.752Z,95633.19
2023-04-22T21:20:12.508Z,95651.88
2023-04-22T21:22:42.583Z,95630.94
2023-04-22T21:25:10.135Z,95670.75
2023-04-22T21:27:37.487Z,95651.13
2023-04-22T21:30:05.021Z,95650.75
2023-04-22T21:32:33.046Z,95668.34
2023-04-22T21:35:00.305Z,95668.81
2023-04-22T21:37:27.182Z,95681.63
2023-04-22T21:39:54.689Z,95687.88
2023-04-22T21:42:24.507Z,95711.13
2023-04-22T21:44:51.384Z,95692.72
2023-04-22T21:47:18.830Z,95712.19
2023-04-22T21:49:47.380Z,95711.78
2023-04-22T21:52:14.713Z,95715.75
2023-04-22T21:55:01.819Z,95692.44
2023-04-22T21:57:29.281Z,95701.53
2023-04-22T21:59:56.434Z,95700.09
2023-04-22T22:02:26.552Z,95674.22
2023-04-22T22:04:54.089Z,95677.00
2023-04-22T22:07:24.073Z,95659.75
2023-04-22T22:09:50.945Z,95672.28
2023-04-22T22:12:17.920Z,95696.41
2023-04-22T22:14:44.871Z,95686.50
2023-04-22T22:17:12.715Z,95678.34
2023-04-22T22:19:39.584Z,95662.31
2023-04-22T22:22:06.618Z,95662.72
2023-04-22T22:24:33.469Z,95642.72
2023-04-22T22:27:01.355Z,95662.19
2023-04-22T22:29:28.315Z,95646.47
2023-04-22T22:31:55.193Z,95651.47
2023-04-22T22:34:22.030Z,95652.63
2023-04-22T22:36:49.281Z,95656.50
2023-04-22T22:39:16.594Z,95685.59
2023-04-22T22:41:44.400Z,95663.72
2023-04-22T22:44:11.609Z,95650.91
2023-04-22T22:46:40.496Z,95663.81
2023-04-22T22:49:07.508Z,95677.25
2023-04-22T22:51:34.507Z,95654.13
2023-04-22T22:54:01.410Z,95677.41
2023-04-22T22:56:28.308Z,95656.50
2023-04-22T22:58:55.742Z,95675.66
2023-04-22T23:01:22.897Z,95653.50
2023-04-22T23:03:50.105Z,95670.56
2023-04-22T23:06:17.005Z,95665.25
2023-04-22T23:08:43.856Z,95638.94
2023-04-22T23:11:11.315Z,95656.69
2023-04-22T23:13:38.213Z,95638.03
2023-04-22T23:16:05.477Z,95665.13
2023-04-22T23:18:32.948Z,95632.44
2023-04-22T23:21:01.432Z,95647.47
2023-04-22T23:23:32.079Z,95644.50
2023-04-22T23:26:00.993Z,95652.09
2023-04-22T23:28:28.320Z,95629.91
2023-04-22T23:30:56.267Z,95663.84
2023-04-22T23:33:26.751Z,95649.72
2023-04-22T23:35:54.132Z,95637.97
2023-04-22T23:38:21.105Z,95653.81
2023-04-22T23:40:47.997Z,95661.94
2023-04-22T23:43:15.138Z,95672.81
2023-04-22T23:45:42.129Z,95655.47
2023-04-22T23:48:08.953Z,95684.63
2023-04-22T23:50:36.022Z,95655.41
2023-04-22T23:53:02.990Z,95653.88
2023-04-22T23:55:30.262Z,95640.59
2023-04-22T23:57:58.149Z,95613.19
